createdAt,value
2022-11-13T00:00:31.996Z,8.17
2022-11-13T00:01:31.997Z,8.24
2022-11-13T00:02:32.046Z,8.18
2022-11-13T00:03:31.980Z,8.20
2022-11-13T00:04:31.951Z,8.22
2022-11-13T00:05:31.944Z,8.21
2022-11-13T00:06:31.933Z,8.20
2022-11-13T00:07:32.018Z,8.22
2022-11-13T00:08:31.910Z,8.20
2022-11-13T00:09:31.907Z,8.14
2022-11-13T00:10:31.942Z,7.99
2022-11-13T00:11:31.875Z,8.17
2022-11-13T00:12:31.863Z,8.07
2022-11-13T00:13:32.002Z,8.20
2022-11-13T00:14:31.845Z,8.09
2022-11-13T00:15:31.835Z,8.24
2022-11-13T00:16:31.820Z,8.17
2022-11-13T00:17:31.813Z,8.13
2022-11-13T00:18:31.802Z,8.18
2022-11-13T00:19:31.805Z,8.06
2022-11-13T00:20:31.776Z,8.06
2022-11-13T00:21:31.772Z,8.02
2022-11-13T00:22:31.753Z,7.96
2022-11-13T00:23:31.750Z,8.14
2022-11-13T00:24:31.734Z,8.12
2022-11-13T00:25:31.737Z,8.10
2022-11-13T00:26:31.712Z,7.99
2022-11-13T00:27:31.698Z,8.09
2022-11-13T00:28:31.693Z,8.00
2022-11-13T00:29:31.806Z,8.10
2022-11-13T00:30:31.680Z,8.07
2022-11-13T00:31:31.662Z,8.06
2022-11-13T00:32:31.644Z,8.09
2022-11-13T00:33:59.792Z,8.12
2022-11-13T00:34:47.258Z,8.17
2022-11-13T00:35:32.631Z,8.21
2022-11-13T00:36:31.603Z,8.17
2022-11-13T00:37:31.601Z,8.13
2022-11-13T00:38:31.585Z,8.07
2022-11-13T00:39:31.571Z,7.96
2022-11-13T00:40:31.556Z,7.95
2022-11-13T00:41:31.561Z,7.88
2022-11-13T00:42:31.536Z,7.95
2022-11-13T00:43:31.534Z,7.94
2022-11-13T00:44:31.517Z,8.07
2022-11-13T00:45:31.533Z,7.99
2022-11-13T00:46:31.504Z,8.06
2022-11-13T00:47:31.485Z,8.00
2022-11-13T00:48:31.480Z,7.71
2022-11-13T00:49:31.466Z,7.85
2022-11-13T00:50:31.455Z,7.92
2022-11-13T00:51:31.454Z,7.85
2022-11-13T00:52:31.430Z,7.94
2022-11-13T00:53:31.417Z,7.88
2022-11-13T00:54:31.406Z,7.84
2022-11-13T00:55:31.402Z,7.84
2022-11-13T00:56:31.396Z,7.96
2022-11-13T00:57:31.388Z,7.92
2022-11-13T00:58:31.783Z,7.76
2022-11-13T00:59:31.353Z,7.88
2022-11-13T01:00:31.342Z,8.00
2022-11-13T01:01:31.583Z,8.00
2022-11-13T01:02:31.323Z,7.95
2022-11-13T01:03:31.317Z,8.00
2022-11-13T01:04:31.301Z,7.96
2022-11-13T01:05:31.303Z,7.94
2022-11-13T01:06:31.275Z,7.99
2022-11-13T01:07:31.292Z,8.02
2022-11-13T01:08:31.481Z,8.10
2022-11-13T01:09:31.243Z,8.07
2022-11-13T01:10:31.229Z,8.24
2022-11-13T01:11:31.219Z,8.29
2022-11-13T01:12:31.211Z,8.24
2022-11-13T01:13:31.265Z,8.21
2022-11-13T01:14:31.188Z,8.17
2022-11-13T01:15:31.176Z,8.03
2022-11-13T01:16:31.172Z,8.00
2022-11-13T01:17:31.280Z,7.95
2022-11-13T01:18:31.145Z,8.07
2022-11-13T01:19:31.135Z,7.92
2022-11-13T01:20:31.119Z,7.92
2022-11-13T01:21:31.112Z,7.99
2022-11-13T01:22:31.100Z,7.89
2022-11-13T01:23:31.100Z,7.99
2022-11-13T01:24:31.080Z,8.06
2022-11-13T01:25:31.074Z,8.03
2022-11-13T01:26:31.055Z,8.02
2022-11-13T01:27:31.044Z,8.02
2022-11-13T01:28:31.230Z,8.00
2022-11-13T01:29:31.028Z,7.92
2022-11-13T01:30:31.025Z,7.99
2022-11-13T01:31:31.007Z,8.00
2022-11-13T01:32:30.990Z,8.03
2022-11-13T01:33:31.100Z,8.13
2022-11-13T01:34:30.981Z,8.10
2022-11-13T01:35:30.954Z,8.07
2022-11-13T01:36:30.974Z,8.10
2022-11-13T01:37:30.937Z,7.99
2022-11-13T01:38:34.450Z,8.10
2022-11-13T01:39:31.924Z,8.09
2022-11-13T01:40:30.901Z,8.06
2022-11-13T01:41:30.891Z,7.96
2022-11-13T01:42:30.893Z,8.07
2022-11-13T01:43:30.883Z,7.96
2022-11-13T01:44:30.857Z,7.95
2022-11-13T01:45:30.846Z,7.95
2022-11-13T01:46:30.849Z,7.88
2022-11-13T01:47:30.829Z,7.95
2022-11-13T01:48:31.018Z,7.95
2022-11-13T01:49:30.928Z,7.92
2022-11-13T01:50:30.795Z,7.85
2022-11-13T01:51:30.789Z,7.85
2022-11-13T01:52:30.771Z,7.94
2022-11-13T01:53:30.764Z,7.77
2022-11-13T01:54:30.765Z,7.79
2022-11-13T01:55:30.739Z,7.67
2022-11-13T01:56:30.726Z,7.67
2022-11-13T01:57:30.736Z,7.74
2022-11-13T01:58:30.928Z,7.63
2022-11-13T01:59:30.695Z,7.76
2022-11-13T02:00:30.691Z,7.85
2022-11-13T02:01:30.699Z,7.82
2022-11-13T02:02:30.662Z,7.81
2022-11-13T02:03:30.661Z,7.84
2022-11-13T02:04:30.647Z,7.86
2022-11-13T02:05:30.765Z,7.82
2022-11-13T02:06:30.624Z,7.89
2022-11-13T02:07:30.609Z,7.94
2022-11-13T02:08:31.001Z,7.96
2022-11-13T02:09:30.595Z,7.91
2022-11-13T02:10:30.582Z,8.02
2022-11-13T02:11:30.579Z,8.00
2022-11-13T02:12:30.559Z,8.04
2022-11-13T02:13:30.543Z,8.03
2022-11-13T02:14:30.530Z,8.02
2022-11-13T02:15:30.525Z,7.99
2022-11-13T02:16:30.510Z,8.00
2022-11-13T02:17:30.731Z,8.06
2022-11-13T02:18:30.789Z,8.06
2022-11-13T02:19:30.476Z,8.02
2022-11-13T02:20:30.474Z,8.09
2022-11-13T02:21:30.575Z,8.07
2022-11-13T02:22:30.448Z,8.03
2022-11-13T02:23:30.434Z,8.00
2022-11-13T02:24:32.386Z,8.10
2022-11-13T02:25:30.408Z,8.10
2022-11-13T02:26:30.465Z,7.94
2022-11-13T02:27:30.390Z,7.94
2022-11-13T02:28:30.787Z,7.85
2022-11-13T02:29:30.368Z,7.62
2022-11-13T02:30:30.377Z,7.58
2022-11-13T02:31:30.342Z,7.81
2022-11-13T02:32:30.336Z,7.84
2022-11-13T02:33:30.321Z,7.88
2022-11-13T02:34:30.314Z,7.96
2022-11-13T02:35:30.301Z,7.89
2022-11-13T02:36:30.311Z,7.99
2022-11-13T02:37:30.396Z,8.00
2022-11-13T02:38:30.719Z,7.96
2022-11-13T02:39:30.268Z,8.04
2022-11-13T02:40:30.251Z,8.07
2022-11-13T02:41:30.250Z,7.95
2022-11-13T02:42:30.226Z,7.95
2022-11-13T02:43:30.216Z,7.96
2022-11-13T02:44:30.207Z,8.00
2022-11-13T02:45:30.228Z,8.04
2022-11-13T02:46:30.181Z,8.07
2022-11-13T02:47:30.167Z,7.96
2022-11-13T02:48:30.519Z,7.92
2022-11-13T02:49:30.148Z,8.00
2022-11-13T02:50:30.134Z,7.91
2022-11-13T02:51:30.138Z,7.94
2022-11-13T02:52:30.186Z,8.00
2022-11-13T02:53:30.219Z,8.13
2022-11-13T02:54:30.365Z,8.07
2022-11-13T02:55:30.088Z,8.06
2022-11-13T02:56:30.082Z,7.99
2022-11-13T02:57:30.060Z,8.00
2022-11-13T02:58:30.665Z,7.94
2022-11-13T02:59:30.039Z,7.85
2022-11-13T03:00:30.045Z,7.84
2022-11-13T03:01:30.145Z,7.86
2022-11-13T03:02:30.012Z,8.00
2022-11-13T03:03:56.684Z,7.99
2022-11-13T03:04:50.186Z,7.91
2022-11-13T03:05:30.979Z,7.99
2022-11-13T03:06:30.175Z,8.02
2022-11-13T03:07:29.950Z,8.04
2022-11-13T03:08:30.853Z,7.96
2022-11-13T03:09:30.074Z,8.00
2022-11-13T03:10:29.913Z,8.04
2022-11-13T03:11:29.926Z,7.91
2022-11-13T03:12:29.897Z,7.89
2022-11-13T03:13:29.884Z,8.02
2022-11-13T03:14:29.875Z,7.91
2022-11-13T03:15:29.877Z,7.89
2022-11-13T03:16:29.852Z,7.85
2022-11-13T03:17:29.837Z,8.00
2022-11-13T03:18:30.062Z,7.88
2022-11-13T03:19:29.817Z,7.85
2022-11-13T03:20:29.806Z,7.82
2022-11-13T03:21:29.810Z,7.86
2022-11-13T03:22:29.786Z,7.84
2022-11-13T03:23:29.788Z,7.85
2022-11-13T03:24:29.767Z,7.94
2022-11-13T03:25:29.874Z,7.81
2022-11-13T03:26:29.757Z,7.67
2022-11-13T03:27:29.732Z,7.89
2022-11-13T03:28:37.255Z,7.58
2022-11-13T03:29:37.253Z,7.50
2022-11-13T03:30:37.213Z,7.62
2022-11-13T03:31:37.229Z,7.63
2022-11-13T03:32:29.730Z,7.69
2022-11-13T03:33:37.196Z,7.62
2022-11-13T03:34:37.178Z,7.58
2022-11-13T03:35:44.166Z,7.62
2022-11-13T03:37:40.949Z,7.69
2022-11-13T03:38:40.942Z,7.71
2022-11-13T03:39:41.006Z,7.69
2022-11-13T03:40:41.036Z,7.69
2022-11-13T03:41:40.911Z,7.63
2022-11-13T03:42:40.898Z,7.45
2022-11-13T03:43:40.884Z,7.42
2022-11-13T03:44:40.874Z,7.42
2022-11-13T03:45:40.884Z,7.37
2022-11-13T03:46:40.862Z,7.44
2022-11-13T03:47:40.858Z,7.44
2022-11-13T03:48:40.844Z,7.41
2022-11-13T03:49:40.820Z,7.51
2022-11-13T03:50:45.330Z,7.51
2022-11-13T03:51:40.798Z,7.55
2022-11-13T03:52:40.793Z,7.70
2022-11-13T03:53:40.791Z,7.76
2022-11-13T03:54:40.764Z,7.69
2022-11-13T03:55:40.756Z,7.82
2022-11-13T03:56:40.866Z,7.74
2022-11-13T03:57:40.746Z,7.79
2022-11-13T03:58:42.091Z,7.74
2022-11-13T03:59:40.723Z,7.70
2022-11-13T04:00:40.705Z,7.67
2022-11-13T04:01:40.725Z,7.81
2022-11-13T04:02:40.680Z,7.81
2022-11-13T04:03:40.670Z,7.66
2022-11-13T04:04:40.655Z,7.76
2022-11-13T04:05:40.755Z,7.71
2022-11-13T04:06:40.735Z,7.66
2022-11-13T04:07:40.628Z,7.63
2022-11-13T04:08:40.612Z,7.62
2022-11-13T04:09:40.601Z,7.66
2022-11-13T04:10:40.592Z,7.81
2022-11-13T04:11:40.589Z,7.63
2022-11-13T04:12:40.691Z,7.77
2022-11-13T04:13:40.555Z,7.62
2022-11-13T04:14:40.550Z,7.67
2022-11-13T04:15:40.537Z,7.54
2022-11-13T04:16:40.545Z,7.70
2022-11-13T04:17:40.517Z,7.74
2022-11-13T04:18:40.507Z,7.60
2022-11-13T04:19:40.495Z,7.70
2022-11-13T04:20:40.483Z,7.76
2022-11-13T04:21:40.473Z,7.77
2022-11-13T04:22:40.481Z,7.71
2022-11-13T04:23:40.446Z,7.69
2022-11-13T04:24:40.444Z,7.77
2022-11-13T04:25:40.423Z,7.85
2022-11-13T04:26:40.418Z,7.74
2022-11-13T04:27:40.405Z,7.74
2022-11-13T04:28:40.516Z,7.58
2022-11-13T04:29:40.380Z,7.66
2022-11-13T04:30:40.379Z,7.67
2022-11-13T04:31:40.375Z,7.69
2022-11-13T04:32:40.362Z,7.71
2022-11-13T04:33:40.339Z,7.74
2022-11-13T04:34:40.329Z,7.71
2022-11-13T04:35:40.316Z,7.67
2022-11-13T04:36:40.366Z,7.63
2022-11-13T04:37:40.295Z,7.67
2022-11-13T04:38:40.297Z,7.63
2022-11-13T04:39:40.281Z,7.58
2022-11-13T04:40:40.276Z,7.69
2022-11-13T04:41:40.252Z,7.62
2022-11-13T04:42:40.268Z,7.67
2022-11-13T04:43:40.255Z,7.69
2022-11-13T04:44:40.340Z,7.57
2022-11-13T04:45:40.208Z,7.60
2022-11-13T04:46:40.195Z,7.60
2022-11-13T04:47:40.184Z,7.62
2022-11-13T04:48:40.238Z,7.69
2022-11-13T04:49:40.260Z,7.71
2022-11-13T04:50:40.154Z,7.67
2022-11-13T04:51:40.139Z,7.67
2022-11-13T04:52:40.132Z,7.66
2022-11-13T04:53:40.119Z,7.67
2022-11-13T04:54:40.167Z,7.60
2022-11-13T04:55:40.107Z,7.63
2022-11-13T04:56:40.085Z,7.62
2022-11-13T04:57:40.077Z,7.45
2022-11-13T04:58:40.135Z,7.33
2022-11-13T04:59:40.051Z,7.36
2022-11-13T05:00:40.181Z,7.50
2022-11-13T05:01:40.080Z,7.48
2022-11-13T05:02:40.028Z,7.48
2022-11-13T05:03:40.011Z,7.48
2022-11-13T05:04:39.997Z,7.55
2022-11-13T05:05:39.987Z,7.55
2022-11-13T05:06:40.150Z,7.50
2022-11-13T05:07:39.968Z,7.57
2022-11-13T05:08:39.954Z,7.51
2022-11-13T05:09:39.945Z,7.62
2022-11-13T05:10:39.954Z,7.52
2022-11-13T05:11:39.926Z,7.42
2022-11-13T05:12:39.957Z,7.41
2022-11-13T05:13:39.898Z,7.50
2022-11-13T05:14:39.891Z,7.42
2022-11-13T05:15:39.879Z,7.37
2022-11-13T05:16:39.990Z,7.44
2022-11-13T05:17:39.853Z,7.44
2022-11-13T05:18:39.870Z,7.52
2022-11-13T05:19:39.829Z,7.42
2022-11-13T05:20:39.824Z,7.48
2022-11-13T05:21:39.807Z,7.44
2022-11-13T05:22:39.801Z,7.42
2022-11-13T05:23:39.790Z,7.44
2022-11-13T05:24:39.799Z,7.30
2022-11-13T05:25:39.768Z,7.44
2022-11-13T05:26:39.760Z,7.42
2022-11-13T05:27:39.744Z,7.45
2022-11-13T05:28:39.746Z,7.37
2022-11-13T05:29:39.724Z,7.55
2022-11-13T05:30:39.732Z,7.51
2022-11-13T05:31:39.700Z,7.51
2022-11-13T05:32:39.807Z,7.52
2022-11-13T05:33:39.681Z,7.57
2022-11-13T05:34:39.670Z,7.50
2022-11-13T05:35:39.674Z,7.67
2022-11-13T05:36:39.654Z,7.63
2022-11-13T05:37:39.635Z,7.76
2022-11-13T05:38:39.624Z,7.69
2022-11-13T05:39:39.614Z,7.69
2022-11-13T05:40:39.606Z,7.70
2022-11-13T05:41:39.601Z,7.69
2022-11-13T05:42:39.581Z,7.73
2022-11-13T05:43:39.567Z,7.58
2022-11-13T05:44:39.556Z,7.63
2022-11-13T05:45:39.546Z,7.69
2022-11-13T05:46:39.556Z,7.63
2022-11-13T05:47:39.528Z,7.69
2022-11-13T05:48:39.645Z,7.73
2022-11-13T05:49:39.503Z,7.76
2022-11-13T05:50:39.504Z,7.76
2022-11-13T05:51:39.489Z,7.62
2022-11-13T05:52:39.469Z,7.62
2022-11-13T05:53:39.461Z,7.70
2022-11-13T05:54:39.460Z,7.74
2022-11-13T05:55:39.453Z,7.76
2022-11-13T05:56:39.428Z,7.79
2022-11-13T05:57:39.429Z,7.86
2022-11-13T05:58:39.403Z,7.84
2022-11-13T05:59:39.391Z,7.81
2022-11-13T06:00:39.388Z,7.96
2022-11-13T06:01:39.513Z,7.88
2022-11-13T06:02:39.374Z,7.70
2022-11-13T06:03:39.349Z,7.74
2022-11-13T06:04:39.460Z,7.74
2022-11-13T06:05:39.325Z,7.71
2022-11-13T06:06:39.360Z,7.69
2022-11-13T06:07:39.310Z,7.76
2022-11-13T06:08:39.298Z,7.73
2022-11-13T06:09:39.285Z,7.73
2022-11-13T06:10:39.273Z,7.91
2022-11-13T06:11:39.261Z,7.76
2022-11-13T06:12:39.272Z,7.92
2022-11-13T06:13:39.247Z,7.79
2022-11-13T06:14:39.231Z,7.85
2022-11-13T06:15:39.214Z,7.77
2022-11-13T06:16:39.206Z,7.70
2022-11-13T06:17:39.210Z,7.66
2022-11-13T06:18:39.185Z,7.74
2022-11-13T06:19:39.181Z,7.73
2022-11-13T06:20:39.299Z,7.76
2022-11-13T06:21:39.150Z,7.70
2022-11-13T06:22:39.142Z,7.70
2022-11-13T06:23:39.142Z,7.70
2022-11-13T06:24:39.129Z,7.84
2022-11-13T06:25:39.108Z,7.88
2022-11-13T06:26:39.096Z,7.95
2022-11-13T06:27:39.091Z,8.00
2022-11-13T06:28:39.072Z,8.00
2022-11-13T06:29:39.075Z,7.89
2022-11-13T06:30:39.061Z,7.95
2022-11-13T06:31:39.050Z,7.85
2022-11-13T06:32:39.051Z,7.91
2022-11-13T06:33:39.024Z,7.81
2022-11-13T06:34:39.008Z,7.82
2022-11-13T06:35:38.998Z,7.76
2022-11-13T06:36:39.110Z,7.69
2022-11-13T06:37:38.974Z,7.69
2022-11-13T06:38:39.032Z,7.77
2022-11-13T06:39:38.961Z,7.67
2022-11-13T06:40:38.943Z,7.82
2022-11-13T06:41:38.935Z,7.67
2022-11-13T06:42:39.205Z,7.55
2022-11-13T06:43:38.911Z,7.66
2022-11-13T06:44:38.897Z,7.69
2022-11-13T06:45:38.891Z,7.63
2022-11-13T06:46:38.875Z,7.60
2022-11-13T06:47:38.877Z,7.44
2022-11-13T06:48:38.876Z,7.54
2022-11-13T06:49:38.847Z,7.60
2022-11-13T06:50:38.832Z,7.24
2022-11-13T06:51:38.824Z,7.29
2022-11-13T06:52:38.927Z,7.24
2022-11-13T06:53:38.808Z,7.16
2022-11-13T06:54:38.846Z,7.12
2022-11-13T06:55:38.783Z,7.15
2022-11-13T06:56:38.782Z,7.29
2022-11-13T06:57:38.763Z,7.37
2022-11-13T06:58:38.760Z,7.60
2022-11-13T06:59:38.735Z,7.66
2022-11-13T07:00:40.171Z,7.66
2022-11-13T07:01:38.827Z,7.73
2022-11-13T07:02:38.718Z,7.67
2022-11-13T07:03:38.712Z,7.63
2022-11-13T07:04:38.685Z,7.60
2022-11-13T07:05:38.883Z,7.63
2022-11-13T07:06:40.543Z,7.58
2022-11-13T07:07:38.649Z,7.77
2022-11-13T07:08:38.750Z,7.71
2022-11-13T07:09:38.627Z,7.67
2022-11-13T07:10:38.615Z,7.73
2022-11-13T07:11:38.602Z,7.82
2022-11-13T07:12:38.715Z,7.86
2022-11-13T07:13:38.593Z,7.92
2022-11-13T07:14:38.571Z,7.79
2022-11-13T07:15:38.560Z,7.73
2022-11-13T07:16:56.620Z,7.94
2022-11-13T07:17:39.556Z,7.79
2022-11-13T07:18:38.586Z,7.86
2022-11-13T07:19:38.519Z,7.88
2022-11-13T07:20:38.507Z,7.69
2022-11-13T07:21:38.494Z,7.88
2022-11-13T07:22:38.480Z,7.86
2022-11-13T07:23:38.493Z,7.85
2022-11-13T07:24:38.628Z,7.88
2022-11-13T07:25:38.451Z,7.96
2022-11-13T07:26:38.444Z,7.84
2022-11-13T07:27:38.439Z,7.88
2022-11-13T07:28:38.425Z,7.91
2022-11-13T07:29:38.424Z,7.95
2022-11-13T07:30:38.449Z,7.88
2022-11-13T07:31:38.386Z,7.89
2022-11-13T07:32:38.373Z,7.85
2022-11-13T07:33:38.361Z,7.94
2022-11-13T07:34:38.353Z,7.84
2022-11-13T07:35:38.367Z,7.84
2022-11-13T07:36:38.346Z,7.74
2022-11-13T07:37:38.320Z,7.69
2022-11-13T07:38:38.304Z,7.86
2022-11-13T07:39:38.294Z,7.86
2022-11-13T07:40:38.404Z,7.81
2022-11-13T07:41:38.287Z,7.70
2022-11-13T07:42:38.276Z,7.63
2022-11-13T07:43:38.253Z,7.70
2022-11-13T07:44:53.940Z,7.69
2022-11-13T07:45:39.231Z,7.88
2022-11-13T07:46:38.242Z,7.89
2022-11-13T07:47:38.241Z,7.84
2022-11-13T07:48:38.210Z,7.96
2022-11-13T07:49:38.190Z,7.82
2022-11-13T07:50:38.178Z,7.86
2022-11-13T07:51:38.179Z,7.94
2022-11-13T07:52:38.152Z,7.88
2022-11-13T07:53:38.219Z,7.91
2022-11-13T07:54:38.131Z,7.88
2022-11-13T07:55:38.125Z,7.86
2022-11-13T07:56:38.245Z,7.89
2022-11-13T07:57:38.095Z,7.94
2022-11-13T07:58:38.090Z,7.94
2022-11-13T07:59:38.079Z,7.91
2022-11-13T08:00:38.100Z,7.92
2022-11-13T08:01:38.058Z,7.82
2022-11-13T08:02:38.057Z,7.86
2022-11-13T08:03:38.035Z,7.88
2022-11-13T08:04:38.025Z,8.07
2022-11-13T08:05:38.022Z,7.96
2022-11-13T08:06:38.037Z,8.14
2022-11-13T08:07:37.990Z,8.24
2022-11-13T08:08:37.979Z,8.12
2022-11-13T08:09:37.968Z,7.96
2022-11-13T08:10:37.969Z,7.94
2022-11-13T08:11:37.950Z,8.09
2022-11-13T08:12:38.051Z,8.04
2022-11-13T08:13:37.929Z,8.03
2022-11-13T08:14:37.915Z,8.09
2022-11-13T08:15:37.916Z,8.32
2022-11-13T08:16:37.889Z,8.18
2022-11-13T08:17:37.994Z,8.27
2022-11-13T08:18:37.868Z,8.24
2022-11-13T08:19:37.856Z,8.17
2022-11-13T08:20:37.847Z,8.12
2022-11-13T08:21:37.838Z,7.99
2022-11-13T08:22:37.822Z,7.92
2022-11-13T08:23:37.833Z,7.67
2022-11-13T08:24:37.806Z,7.73
2022-11-13T08:25:37.794Z,7.82
2022-11-13T08:26:37.875Z,7.82
2022-11-13T08:27:37.779Z,8.14
2022-11-13T08:28:37.901Z,8.29
2022-11-13T08:29:37.755Z,8.37
2022-11-13T08:30:37.738Z,8.24
2022-11-13T08:31:37.728Z,8.28
2022-11-13T08:32:37.719Z,8.31
2022-11-13T08:33:37.705Z,8.39
2022-11-13T08:34:37.706Z,8.20
2022-11-13T08:35:37.687Z,7.94
2022-11-13T08:36:37.671Z,7.94
2022-11-13T08:37:37.662Z,7.79
2022-11-13T08:38:37.651Z,7.82
2022-11-13T08:39:37.640Z,8.07
2022-11-13T08:40:37.736Z,8.21
2022-11-13T08:41:37.625Z,8.22
2022-11-13T08:42:37.603Z,8.31
2022-11-13T08:43:37.596Z,8.36
2022-11-13T08:44:37.706Z,8.36
2022-11-13T08:45:37.574Z,8.27
2022-11-13T08:46:37.576Z,8.34
2022-11-13T08:47:37.562Z,8.34
2022-11-13T08:48:37.539Z,8.43
2022-11-13T08:49:37.529Z,8.52
2022-11-13T08:50:37.515Z,9.01
2022-11-13T08:51:37.517Z,9.78
2022-11-13T08:52:37.497Z,10.35
2022-11-13T08:53:37.542Z,11.02
2022-11-13T08:54:37.473Z,11.30
2022-11-13T08:55:37.460Z,11.79
2022-11-13T08:56:37.482Z,11.96
2022-11-13T08:57:37.447Z,12.00
2022-11-13T08:58:37.439Z,11.84
2022-11-13T08:59:37.474Z,11.98
2022-11-13T09:00:37.526Z,12.29
2022-11-13T09:01:37.396Z,12.70
2022-11-13T09:02:37.395Z,12.85
2022-11-13T09:03:37.523Z,12.87
2022-11-13T09:04:37.373Z,12.95
2022-11-13T09:05:37.355Z,12.95
2022-11-13T09:06:37.404Z,12.96
2022-11-13T09:07:37.327Z,13.19
2022-11-13T09:08:37.341Z,13.62
2022-11-13T09:09:37.311Z,13.83
2022-11-13T09:10:37.304Z,13.62
2022-11-13T09:11:37.288Z,13.46
2022-11-13T09:12:37.281Z,13.59
2022-11-13T09:13:42.750Z,13.35
2022-11-13T09:14:38.276Z,13.13
2022-11-13T09:15:37.246Z,13.41
2022-11-13T09:16:37.360Z,13.79
2022-11-13T09:17:37.219Z,13.87
2022-11-13T09:18:37.207Z,14.01
2022-11-13T09:19:37.196Z,13.99
2022-11-13T09:20:37.203Z,14.04
2022-11-13T09:21:37.177Z,13.81
2022-11-13T09:22:37.168Z,13.65
2022-11-13T09:23:37.159Z,13.62
2022-11-13T09:24:37.153Z,13.38
2022-11-13T09:25:38.015Z,13.47
2022-11-13T09:26:37.125Z,13.43
2022-11-13T09:27:37.112Z,13.66
2022-11-13T09:28:37.100Z,14.01
2022-11-13T09:29:37.094Z,14.36
2022-11-13T09:30:37.086Z,14.31
2022-11-13T09:31:37.065Z,14.13
2022-11-13T09:32:37.175Z,14.05
2022-11-13T09:33:37.042Z,14.30
2022-11-13T09:34:37.033Z,14.60
2022-11-13T09:35:37.025Z,14.24
2022-11-13T09:36:37.032Z,14.49
2022-11-13T09:37:36.999Z,14.66
2022-11-13T09:38:36.992Z,14.01
2022-11-13T09:39:36.979Z,14.11
2022-11-13T09:40:37.067Z,14.11
2022-11-13T09:41:36.965Z,14.19
2022-11-13T09:42:36.944Z,14.17
2022-11-13T09:43:36.933Z,13.96
2022-11-13T09:44:36.925Z,14.26
2022-11-13T09:45:36.910Z,14.79
2022-11-13T09:46:36.910Z,15.00
2022-11-13T09:47:36.891Z,15.00
2022-11-13T09:48:36.999Z,15.00
2022-11-13T09:49:36.873Z,14.90
2022-11-13T09:50:36.868Z,15.03
2022-11-13T09:51:36.847Z,15.28
2022-11-13T09:52:36.836Z,15.33
2022-11-13T09:53:36.823Z,15.44
2022-11-13T09:54:36.813Z,15.33
2022-11-13T09:55:36.803Z,15.05
2022-11-13T09:56:36.808Z,15.15
2022-11-13T09:57:36.781Z,14.85
2022-11-13T09:58:36.775Z,14.60
2022-11-13T09:59:36.757Z,14.48
2022-11-13T10:00:36.763Z,14.52
2022-11-13T10:01:36.734Z,14.71
2022-11-13T10:02:36.724Z,14.79
2022-11-13T10:04:00.008Z,15.28
2022-11-13T10:04:37.827Z,15.43
2022-11-13T10:05:36.692Z,15.31
2022-11-13T10:06:36.853Z,15.49
2022-11-13T10:07:36.671Z,15.27
2022-11-13T10:08:36.656Z,15.16
2022-11-13T10:09:36.665Z,14.86
2022-11-13T10:10:36.648Z,14.64
2022-11-13T10:11:36.630Z,15.01
2022-11-13T10:12:36.615Z,14.83
2022-11-13T10:13:36.606Z,14.87
2022-11-13T10:14:36.652Z,15.00
2022-11-13T10:15:36.582Z,14.83
2022-11-13T10:16:36.577Z,14.69
2022-11-13T10:17:36.560Z,14.46
2022-11-13T10:18:36.554Z,14.12
2022-11-13T10:19:36.538Z,14.20
2022-11-13T10:20:36.755Z,14.30
2022-11-13T10:21:36.516Z,14.66
2022-11-13T10:22:36.500Z,14.57
2022-11-13T10:23:36.495Z,14.48
2022-11-13T10:24:36.486Z,14.97
2022-11-13T10:25:36.471Z,15.31
2022-11-13T10:26:36.470Z,15.03
2022-11-13T10:27:36.531Z,14.71
2022-11-13T10:28:50.633Z,14.91
2022-11-13T10:29:37.424Z,14.75
2022-11-13T10:30:36.422Z,14.45
2022-11-13T10:31:36.419Z,14.78
2022-11-13T10:32:36.395Z,14.46
2022-11-13T10:33:36.382Z,14.35
2022-11-13T10:34:36.374Z,14.35
2022-11-13T10:35:36.360Z,14.16
2022-11-13T10:36:36.472Z,14.09
2022-11-13T10:37:36.437Z,14.12
2022-11-13T10:38:36.334Z,13.98
2022-11-13T10:39:36.315Z,14.21
2022-11-13T10:40:36.302Z,14.27
2022-11-13T10:41:36.291Z,14.66
2022-11-13T10:42:36.281Z,14.46
2022-11-13T10:43:36.282Z,14.59
2022-11-13T10:44:36.255Z,14.69
2022-11-13T10:45:36.246Z,15.04
2022-11-13T10:46:36.233Z,14.97
2022-11-13T10:48:02.642Z,14.93
2022-11-13T10:48:37.238Z,14.54
2022-11-13T10:49:36.224Z,14.60
2022-11-13T10:50:36.191Z,14.53
2022-11-13T10:51:36.186Z,14.05
2022-11-13T10:52:36.290Z,14.21
2022-11-13T10:53:36.160Z,14.71
2022-11-13T10:54:36.153Z,14.75
2022-11-13T10:55:36.149Z,14.63
2022-11-13T10:56:36.126Z,14.74
2022-11-13T10:57:36.112Z,15.04
2022-11-13T10:58:36.101Z,15.28
2022-11-13T10:59:36.089Z,15.67
2022-11-13T11:00:36.083Z,15.62
2022-11-13T11:01:36.158Z,15.41
2022-11-13T11:02:36.060Z,15.44
2022-11-13T11:03:36.045Z,15.11
2022-11-13T11:04:36.036Z,15.73
2022-11-13T11:05:36.027Z,15.60
2022-11-13T11:07:04.976Z,15.09
2022-11-13T11:07:37.043Z,15.01
2022-11-13T11:08:36.128Z,14.78
2022-11-13T11:09:35.983Z,14.72
2022-11-13T11:10:35.971Z,14.97
2022-11-13T11:11:35.960Z,15.09
2022-11-13T11:12:36.023Z,15.25
2022-11-13T11:13:35.940Z,15.76
2022-11-13T11:14:35.925Z,15.70
2022-11-13T11:15:35.929Z,16.17
2022-11-13T11:16:35.903Z,15.70
2022-11-13T11:17:35.891Z,15.27
2022-11-13T11:18:35.889Z,15.33
2022-11-13T11:19:35.874Z,15.40
2022-11-13T11:20:35.870Z,15.51
2022-11-13T11:21:35.847Z,15.00
2022-11-13T11:22:35.837Z,14.49
2022-11-13T11:23:35.827Z,13.87
2022-11-13T11:24:35.968Z,13.91
2022-11-13T11:25:35.804Z,14.29
2022-11-13T11:26:35.791Z,14.27
2022-11-13T11:27:35.785Z,14.57
2022-11-13T11:28:35.767Z,14.56
2022-11-13T11:29:35.761Z,14.23
2022-11-13T11:30:35.758Z,14.69
2022-11-13T11:31:35.741Z,14.98
2022-11-13T11:32:35.726Z,15.43
2022-11-13T11:33:35.723Z,15.58
2022-11-13T11:34:35.717Z,15.52
2022-11-13T11:35:35.690Z,15.76
2022-11-13T11:36:35.686Z,15.37
2022-11-13T11:37:35.673Z,15.31
2022-11-13T11:38:35.658Z,14.98
2022-11-13T11:39:35.660Z,15.07
2022-11-13T11:40:35.756Z,15.09
2022-11-13T11:41:35.625Z,15.23
2022-11-13T11:42:35.614Z,15.12
2022-11-13T11:43:35.627Z,14.94
2022-11-13T11:44:35.591Z,14.90
2022-11-13T11:45:35.579Z,15.18
2022-11-13T11:46:35.566Z,15.59
2022-11-13T11:47:35.558Z,15.85
2022-11-13T11:48:35.546Z,15.98
2022-11-13T11:49:35.552Z,16.04
2022-11-13T11:50:35.523Z,15.81
2022-11-13T11:51:35.517Z,15.53
2022-11-13T11:52:35.505Z,15.71
2022-11-13T11:53:35.494Z,15.60
2022-11-13T11:54:35.542Z,15.89
2022-11-13T11:55:35.491Z,15.58
2022-11-13T11:56:35.583Z,15.41
2022-11-13T11:57:35.448Z,15.76
2022-11-13T11:58:35.469Z,15.93
2022-11-13T11:59:35.429Z,15.85
2022-11-13T12:00:35.419Z,15.89
2022-11-13T12:01:35.412Z,15.23
2022-11-13T12:02:35.395Z,15.41
2022-11-13T12:03:35.387Z,15.89
2022-11-13T12:04:35.459Z,16.10
2022-11-13T12:05:35.423Z,15.91
2022-11-13T12:06:35.353Z,15.56
2022-11-13T12:07:35.362Z,15.80
2022-11-13T12:08:35.327Z,15.70
2022-11-13T12:09:35.324Z,14.94
2022-11-13T12:10:35.311Z,15.16
2022-11-13T12:11:35.296Z,15.38
2022-11-13T12:12:35.415Z,15.25
2022-11-13T12:13:35.279Z,15.34
2022-11-13T12:14:35.263Z,15.73
2022-11-13T12:15:35.256Z,15.88
2022-11-13T12:16:35.246Z,15.77
2022-11-13T12:17:35.331Z,15.30
2022-11-13T12:18:35.222Z,15.27
2022-11-13T12:19:35.218Z,15.15
2022-11-13T12:20:35.198Z,15.01
2022-11-13T12:21:35.190Z,15.31
2022-11-13T12:22:35.178Z,15.49
2022-11-13T12:23:35.180Z,15.84
2022-11-13T12:24:35.153Z,15.74
2022-11-13T12:25:35.211Z,15.49
2022-11-13T12:26:35.133Z,15.68
2022-11-13T12:27:35.233Z,15.92
2022-11-13T12:28:40.642Z,15.66
2022-11-13T12:29:36.105Z,15.58
2022-11-13T12:30:35.091Z,15.80
2022-11-13T12:31:35.081Z,15.86
2022-11-13T12:32:35.069Z,15.84
2022-11-13T12:33:35.069Z,15.41
2022-11-13T12:34:35.047Z,14.85
2022-11-13T12:35:35.040Z,14.66
2022-11-13T12:36:35.030Z,14.59
2022-11-13T12:37:35.015Z,14.49
2022-11-13T12:38:35.001Z,14.57
2022-11-13T12:39:35.002Z,14.31
2022-11-13T12:40:37.571Z,14.39
2022-11-13T12:41:35.966Z,14.35
2022-11-13T12:42:34.955Z,14.57
2022-11-13T12:43:34.951Z,14.67
2022-11-13T12:44:35.058Z,14.78
2022-11-13T12:45:34.932Z,14.71
2022-11-13T12:46:34.914Z,14.53
2022-11-13T12:47:34.903Z,14.45
2022-11-13T12:48:34.887Z,14.46
2022-11-13T12:49:34.903Z,14.34
2022-11-13T12:50:34.880Z,14.52
2022-11-13T12:51:34.860Z,14.39
2022-11-13T12:52:34.853Z,14.27
2022-11-13T12:53:34.836Z,14.48
2022-11-13T12:54:34.838Z,14.56
2022-11-13T12:55:34.823Z,14.54
2022-11-13T12:56:34.800Z,14.83
2022-11-13T12:57:34.789Z,15.04
2022-11-13T12:58:34.793Z,15.01
2022-11-13T12:59:34.769Z,14.98
2022-11-13T13:00:34.879Z,15.33
2022-11-13T13:01:34.876Z,15.52
2022-11-13T13:02:34.739Z,15.53
2022-11-13T13:03:34.723Z,15.64
2022-11-13T13:04:34.722Z,15.56
2022-11-13T13:05:34.718Z,15.55
2022-11-13T13:06:34.694Z,15.41
2022-11-13T13:07:34.694Z,14.97
2022-11-13T13:08:34.670Z,14.97
2022-11-13T13:09:34.662Z,15.13
2022-11-13T13:10:34.646Z,15.41